Gas Wisdom — H9CC — position and weather

sailwx.info

Track history (hours):
 
Tides and Currents Weather Stations Pressure Air Temp Water Temp Dewpoint Dewpoint Depression Visibility Wind Speed Wind Dir Waves Ship Positions

Gas Wisdom

Last reported at 2017-May-20 01:42 UTC. Time now 2017-May-22 21:27 UTC.
Position N 30°30' E 123°13'.

Length 225 m; draft 7.6 m.

Type: Tanker. MMSI: 373435000.

Date/timePositionNaut miles runAvg speedWind from/ knotsBaromVisibWave heightAir tempDewpointWater temp
2017-May-20 01:42N 30°30' E 123°13'5411.9
2017-May-19 21:10N 31°01' E 122°23'214.1
2017-May-19 21:00N 31°02' E 122°20'612.5
2017-May-19 20:30N 31°03' E 122°13'4 7.8
2017-May-19 20:00N 31°03' E 122°08'510.3
2017-May-19 19:30N 31°04' E 122°02'510.5
2017-May-19 19:00N 31°07' E 121°57'612.6
2017-May-19 18:31N 31°10' E 121°51'714.2
2017-May-19 18:01N 31°16' E 121°46'510.7
2017-May-19 17:31N 31°20' E 121°41'5 9.7
2017-May-19 17:01N 31°22' E 121°37'510.9
2017-May-19 16:30N 31°25' E 121°31'3 6.9
2017-May-19 16:00N 31°27' E 121°28'5 9.9
2017-May-19 15:31N 31°31' E 121°24'5 9.6
2017-May-19 15:01N 31°34' E 121°20'0 0.3
2017-May-19 13:55N 31°34' E 121°19'0 0.1
2017-May-19 13:28N 31°34' E 121°19'0 0.0
2017-May-19 12:58N 31°34' E 121°19'0 0.1
2017-May-19 12:28N 31°34' E 121°19'0 0.1
2017-May-19 11:58N 31°34' E 121°19'0 0.0
2017-May-19 11:25N 31°34' E 121°19'0 0.1
2017-May-19 10:58N 31°34' E 121°19'0 0.1
2017-May-19 10:25N 31°34' E 121°19'0 0.0
2017-May-19 09:58N 31°34' E 121°19'0 0.2
2017-May-19 09:30N 31°34' E 121°20'5 9.2
2017-May-19 09:01N 31°37' E 121°16'612.0
2017-May-19 08:30N 31°41' E 121°10'713.2
2017-May-19 08:00N 31°45' E 121°04'611.9
2017-May-19 07:29N 31°47' E 120°57'5 9.8
2017-May-19 07:00N 31°51' E 120°54'  
2017-May-14 01:58N 32°01' E 120°24'4 8.1
2017-May-14 01:30N 32°02' E 120°28'37 9.7
2017-May-13 21:39N 31°44' E 121°06'213.3
2017-May-13 21:30N 31°43' E 121°08'613.0
2017-May-13 21:00N 31°39' E 121°14'613.0
2017-May-13 20:30N 31°34' E 121°19'1 1.6
2017-May-13 20:00N 31°34' E 121°20'0 0.0
2017-May-13 19:30N 31°34' E 121°20'0 0.0
2017-May-13 19:00N 31°34' E 121°20'0 0.0
2017-May-13 18:30N 31°34' E 121°20'0 0.0
2017-May-13 18:00N 31°34' E 121°20'0 0.0
2017-May-13 17:30N 31°34' E 121°20'0 0.0
2017-May-13 17:00N 31°34' E 121°20'0 0.0
2017-May-13 16:30N 31°34' E 121°20'0 0.1
2017-May-13 16:00N 31°34' E 121°20'0 0.4
2017-May-13 15:30N 31°34' E 121°20'0 0.1
2017-May-13 15:00N 31°34' E 121°20'0 0.0
2017-May-13 14:30N 31°34' E 121°20'0 0.1
2017-May-13 13:30N 31°34' E 121°20'0 0.0
2017-May-13 13:00N 31°34' E 121°20'0 0.0
2017-May-13 12:30N 31°34' E 121°20'0 0.0
2017-May-13 12:00N 31°34' E 121°20'0 0.0
2017-May-13 11:30N 31°34' E 121°20'0 0.0
2017-May-13 11:00N 31°34' E 121°20'0 0.0
2017-May-13 10:30N 31°34' E 121°20'0 0.0
2017-May-13 10:00N 31°34' E 121°20'0 0.1
2017-May-13 09:30N 31°34' E 121°20'0 0.1
2017-May-13 09:00N 31°34' E 121°20'0 0.2
2017-May-13 08:30N 31°34' E 121°20'0 0.1
2017-May-13 08:00N 31°34' E 121°20'0 0.2
2017-May-13 07:30N 31°34' E 121°20'0 0.0
2017-May-13 07:00N 31°34' E 121°20'0 0.0
2017-May-13 06:30N 31°34' E 121°20'0 0.0
2017-May-13 06:00N 31°34' E 121°20'2 3.1
2017-May-13 05:30N 31°33' E 121°21'5 9.5
2017-May-13 05:00N 31°30' E 121°26'510.9
2017-May-13 04:31N 31°26' E 121°30'5 9.1
2017-May-13 04:00N 31°24' E 121°34'611.0
2017-May-13 03:30N 31°21' E 121°40'5 9.3
2017-May-13 03:00N 31°19' E 121°45'510.3
2017-May-13 02:30N 31°17' E 121°50'510.6
2017-May-13 02:00N 31°15' E 121°56'611.6
2017-May-13 01:30N 31°14' E 122°03'5 9.5
2017-May-13 01:00N 31°13' E 122°08'612.0
2017-May-13 00:30N 31°09' E 122°14'4 8.5
2017-May-13 00:00N 31°07' E 122°18'612.5
2017-May-12 23:30N 31°07' E 122°25'3 5.8
2017-May-12 23:00N 31°08' E 122°28'4 7.8
2017-May-12 22:31N 31°10' E 122°32'4 8.4
2017-May-12 22:01N 31°12' E 122°36'2 1.6
2017-May-12 21:03N 31°12' E 122°38'0 0.1
2017-May-12 20:39N 31°12' E 122°38'0 0.0
2017-May-12 20:30N 31°12' E 122°38'0 0.1
2017-May-12 19:57N 31°12' E 122°38'0 0.1
2017-May-12 19:24N 31°12' E 122°38'0 0.0
2017-May-12 18:45N 31°12' E 122°38'0 0.2
2017-May-12 18:24N 31°12' E 122°38'0 0.1
2017-May-12 17:57N 31°12' E 122°38'0 0.0
2017-May-12 08:00N 31°12' E 122°38'0 0.0
2017-May-11 22:31N 31°12' E 122°38'0 1.6
2017-May-11 22:28N 31°12' E 122°38'2 3.9
2017-May-11 21:54N 31°11' E 122°40'3 7.7
2017-May-11 21:27N 31°11' E 122°44'611.2
2017-May-11 20:52N 31°08' E 122°51'410.6
2017-May-11 20:30N 31°05' E 122°54'1013.6
2017-May-11 19:47N 30°58' E 123°02'2313.5
2017-May-11 18:07N 30°40' E 123°18'215.0
2017-May-11 17:58N 30°38' E 123°17'1515.3
2017-May-11 16:59N 30°23' E 123°17'815.1
2017-May-11 16:27N 30°15' E 123°17'715.3
2017-May-11 15:59N 30°08' E 123°14'715.3
2017-May-11 15:30N 30°00' E 123°14'1015.6
2017-May-11 14:52N 29°51' E 123°10'1315.3
2017-May-11 14:00N 29°40' E 123°03'815.7
2017-May-11 13:30N 29°32' E 123°02'815.8
2017-May-11 13:00N 29°24' E 122°58'815.7
2017-May-11 12:31N 29°17' E 122°55'815.6
2017-May-11 11:59N 29°10' E 122°51'1215.3
2017-May-11 11:11N 28°58' E 122°46'415.3
2017-May-11 10:55N 28°55' E 122°44'  
Track history (hours):
 
Tides and Currents Weather Stations Pressure Air Temp Water Temp Dewpoint Dewpoint Depression Visibility Wind Speed Wind Dir Waves Ship Positions

Gas Wisdom

Last reported at 2017-May-20 01:42 UTC. Time now 2017-May-22 21:27 UTC.
Position N 30°30' E 123°13'.

Length 225 m; draft 7.6 m.

Type: Tanker. MMSI: 373435000.

Date/timePositionNaut miles runAvg speedWind from/ knotsBaromVisibWave heightAir tempDewpointWater temp
2017-May-20 01:42N 30°30' E 123°13'5411.9
2017-May-19 21:10N 31°01' E 122°23'214.1
2017-May-19 21:00N 31°02' E 122°20'612.5
2017-May-19 20:30N 31°03' E 122°13'4 7.8
2017-May-19 20:00N 31°03' E 122°08'510.3
2017-May-19 19:30N 31°04' E 122°02'510.5
2017-May-19 19:00N 31°07' E 121°57'612.6
2017-May-19 18:31N 31°10' E 121°51'714.2
2017-May-19 18:01N 31°16' E 121°46'510.7
2017-May-19 17:31N 31°20' E 121°41'5 9.7
2017-May-19 17:01N 31°22' E 121°37'510.9
2017-May-19 16:30N 31°25' E 121°31'3 6.9
2017-May-19 16:00N 31°27' E 121°28'5 9.9
2017-May-19 15:31N 31°31' E 121°24'5 9.6
2017-May-19 15:01N 31°34' E 121°20'0 0.3
2017-May-19 13:55N 31°34' E 121°19'0 0.1
2017-May-19 13:28N 31°34' E 121°19'0 0.0
2017-May-19 12:58N 31°34' E 121°19'0 0.1
2017-May-19 12:28N 31°34' E 121°19'0 0.1
2017-May-19 11:58N 31°34' E 121°19'0 0.0
2017-May-19 11:25N 31°34' E 121°19'0 0.1
2017-May-19 10:58N 31°34' E 121°19'0 0.1
2017-May-19 10:25N 31°34' E 121°19'0 0.0
2017-May-19 09:58N 31°34' E 121°19'0 0.2
2017-May-19 09:30N 31°34' E 121°20'5 9.2
2017-May-19 09:01N 31°37' E 121°16'612.0
2017-May-19 08:30N 31°41' E 121°10'713.2
2017-May-19 08:00N 31°45' E 121°04'611.9
2017-May-19 07:29N 31°47' E 120°57'5 9.8
2017-May-19 07:00N 31°51' E 120°54'  
2017-May-14 01:58N 32°01' E 120°24'4 8.1
2017-May-14 01:30N 32°02' E 120°28'37 9.7
2017-May-13 21:39N 31°44' E 121°06'213.3
2017-May-13 21:30N 31°43' E 121°08'613.0
2017-May-13 21:00N 31°39' E 121°14'613.0
2017-May-13 20:30N 31°34' E 121°19'1 1.6
2017-May-13 20:00N 31°34' E 121°20'0 0.0
2017-May-13 19:30N 31°34' E 121°20'0 0.0
2017-May-13 19:00N 31°34' E 121°20'0 0.0
2017-May-13 18:30N 31°34' E 121°20'0 0.0
2017-May-13 18:00N 31°34' E 121°20'0 0.0
2017-May-13 17:30N 31°34' E 121°20'0 0.0
2017-May-13 17:00N 31°34' E 121°20'0 0.0
2017-May-13 16:30N 31°34' E 121°20'0 0.1
2017-May-13 16:00N 31°34' E 121°20'0 0.4
2017-May-13 15:30N 31°34' E 121°20'0 0.1
2017-May-13 15:00N 31°34' E 121°20'0 0.0
2017-May-13 14:30N 31°34' E 121°20'0 0.1
2017-May-13 13:30N 31°34' E 121°20'0 0.0
2017-May-13 13:00N 31°34' E 121°20'0 0.0
2017-May-13 12:30N 31°34' E 121°20'0 0.0
2017-May-13 12:00N 31°34' E 121°20'0 0.0
2017-May-13 11:30N 31°34' E 121°20'0 0.0
2017-May-13 11:00N 31°34' E 121°20'0 0.0
2017-May-13 10:30N 31°34' E 121°20'0 0.0
2017-May-13 10:00N 31°34' E 121°20'0 0.1
2017-May-13 09:30N 31°34' E 121°20'0 0.1
2017-May-13 09:00N 31°34' E 121°20'0 0.2
2017-May-13 08:30N 31°34' E 121°20'0 0.1
2017-May-13 08:00N 31°34' E 121°20'0 0.2
2017-May-13 07:30N 31°34' E 121°20'0 0.0
2017-May-13 07:00N 31°34' E 121°20'0 0.0
2017-May-13 06:30N 31°34' E 121°20'0 0.0
2017-May-13 06:00N 31°34' E 121°20'2 3.1
2017-May-13 05:30N 31°33' E 121°21'5 9.5
2017-May-13 05:00N 31°30' E 121°26'510.9
2017-May-13 04:31N 31°26' E 121°30'5 9.1
2017-May-13 04:00N 31°24' E 121°34'611.0
2017-May-13 03:30N 31°21' E 121°40'5 9.3
2017-May-13 03:00N 31°19' E 121°45'510.3
2017-May-13 02:30N 31°17' E 121°50'510.6
2017-May-13 02:00N 31°15' E 121°56'611.6
2017-May-13 01:30N 31°14' E 122°03'5 9.5
2017-May-13 01:00N 31°13' E 122°08'612.0
2017-May-13 00:30N 31°09' E 122°14'4 8.5
2017-May-13 00:00N 31°07' E 122°18'612.5
2017-May-12 23:30N 31°07' E 122°25'3 5.8
2017-May-12 23:00N 31°08' E 122°28'4 7.8
2017-May-12 22:31N 31°10' E 122°32'4 8.4
2017-May-12 22:01N 31°12' E 122°36'2 1.6
2017-May-12 21:03N 31°12' E 122°38'0 0.1
2017-May-12 20:39N 31°12' E 122°38'0 0.0
2017-May-12 20:30N 31°12' E 122°38'0 0.1
2017-May-12 19:57N 31°12' E 122°38'0 0.1
2017-May-12 19:24N 31°12' E 122°38'0 0.0
2017-May-12 18:45N 31°12' E 122°38'0 0.2
2017-May-12 18:24N 31°12' E 122°38'0 0.1
2017-May-12 17:57N 31°12' E 122°38'0 0.0
2017-May-12 08:00N 31°12' E 122°38'0 0.0
2017-May-11 22:31N 31°12' E 122°38'0 1.6
2017-May-11 22:28N 31°12' E 122°38'2 3.9
2017-May-11 21:54N 31°11' E 122°40'3 7.7
2017-May-11 21:27N 31°11' E 122°44'611.2
2017-May-11 20:52N 31°08' E 122°51'410.6
2017-May-11 20:30N 31°05' E 122°54'1013.6
2017-May-11 19:47N 30°58' E 123°02'2313.5
2017-May-11 18:07N 30°40' E 123°18'215.0
2017-May-11 17:58N 30°38' E 123°17'1515.3
2017-May-11 16:59N 30°23' E 123°17'815.1
2017-May-11 16:27N 30°15' E 123°17'715.3
2017-May-11 15:59N 30°08' E 123°14'715.3
2017-May-11 15:30N 30°00' E 123°14'1015.6
2017-May-11 14:52N 29°51' E 123°10'1315.3
2017-May-11 14:00N 29°40' E 123°03'815.7
2017-May-11 13:30N 29°32' E 123°02'815.8
2017-May-11 13:00N 29°24' E 122°58'815.7
2017-May-11 12:31N 29°17' E 122°55'815.6
2017-May-11 11:59N 29°10' E 122°51'1215.3
2017-May-11 11:11N 28°58' E 122°46'415.3
2017-May-11 10:55N 28°55' E 122°44'  

Dump ship's entire track history